Time;durP1;ratioP1;P1;durP2;ratioP2;P2;SDS_P1;SDS_P2;PMS_P1;PMS_P2;Temp;Humidity;BMP_temperature;BMP_pressure;BME280_temperature;BME280_humidity;BME280_pressure;Samples;Min_cycle;Max_cycle;Signal;HPM_P1;HPM_P2
2022/01/29 00:01:17;;;;;;;14.98;4.63;;;;;;;1.38;67.60;101436.41;5035504;28;20581;-80
2022/01/29 00:03:43;;;;;;;17.95;4.75;;;;;;;1.62;67.71;101430.16;5035227;28;20022;-80
2022/01/29 00:06:10;;;;;;;14.75;5.22;;;;;;;1.46;67.51;101404.38;5018464;28;20068;-81
2022/01/29 00:08:35;;;;;;;11.30;4.72;;;;;;;1.69;68.18;101426.59;5036565;28;20466;-81
2022/01/29 00:11:08;;;;;;;12.75;4.10;;;;;;;1.80;68.53;101432.28;5035159;28;20038;-81
2022/01/29 00:13:34;;;;;;;13.00;4.32;;;;;;;1.88;68.40;101431.91;5035170;28;20044;-79
2022/01/29 00:16:01;;;;;;;10.73;4.97;;;;;;;2.07;68.38;101428.03;5035855;28;20050;-80
2022/01/29 00:18:29;;;;;;;9.50;4.10;;;;;;;2.10;68.51;101428.03;5034741;28;20030;-80
2022/01/29 00:20:55;;;;;;;15.43;5.00;;;;;;;2.10;68.34;101435.66;5036491;28;20469;-81
2022/01/29 00:23:22;;;;;;;16.92;6.13;;;;;;;2.04;68.82;101431.63;5036428;28;20037;-80
2022/01/29 00:25:48;;;;;;;22.77;5.32;;;;;;;1.94;69.34;101421.13;5018697;28;20029;-81
2022/01/29 00:28:15;;;;;;;19.95;5.47;;;;;;;1.96;69.92;101421.53;5017725;28;20029;-80
2022/01/29 00:30:43;;;;;;;14.20;5.32;;;;;;;1.93;69.80;101411.88;5034956;28;20083;-81
2022/01/29 00:33:10;;;;;;;17.65;5.43;;;;;;;1.92;70.66;101413.09;5035002;28;20405;-80
2022/01/29 00:35:36;;;;;;;17.10;5.93;;;;;;;1.90;71.49;101423.91;5034658;28;20173;-80
2022/01/29 00:38:02;;;;;;;16.50;5.03;;;;;;;1.93;71.98;101413.88;5019523;28;20473;-80
2022/01/29 00:40:31;;;;;;;17.02;6.97;;;;;;;1.98;71.92;101411.50;5053471;28;20111;-80
2022/01/29 00:42:58;;;;;;;18.13;5.68;;;;;;;2.18;71.86;101404.38;5053758;28;20389;-80
2022/01/29 00:45:24;;;;;;;18.88;5.53;;;;;;;2.12;71.97;101408.78;5037626;28;20432;-79
2022/01/29 00:47:51;;;;;;;19.27;6.30;;;;;;;2.07;72.27;101409.16;5055058;28;20404;-81
2022/01/29 00:50:18;;;;;;;21.63;6.32;;;;;;;2.07;72.62;101411.94;5038187;28;20071;-77
2022/01/29 00:52:47;;;;;;;15.43;5.68;;;;;;;2.04;73.05;101409.94;5053849;28;20103;-76
2022/01/29 00:55:14;;;;;;;14.88;5.60;;;;;;;2.05;73.38;101403.13;5047326;28;20053;-76
2022/01/29 00:57:40;;;;;;;13.25;5.05;;;;;;;2.05;73.40;101411.56;5018148;28;20033;-77
2022/01/29 01:00:13;;;;;;;19.73;5.50;;;;;;;2.06;73.36;101407.56;5036291;28;20082;-77
2022/01/29 01:02:40;;;;;;;17.40;5.20;;;;;;;2.03;74.43;101404.72;5034244;28;20029;-77
2022/01/29 01:05:06;;;;;;;12.73;4.95;;;;;;;2.20;73.53;101403.19;5017790;28;20025;-77
2022/01/29 01:07:33;;;;;;;20.08;5.28;;;;;;;2.10;74.24;101390.72;5017667;28;20148;-77
2022/01/29 01:09:58;;;;;;;21.50;5.57;;;;;;;2.16;74.26;101383.50;5035736;28;20033;-76
2022/01/29 01:12:24;;;;;;;20.65;5.00;;;;;;;2.14;74.56;101386.72;5017308;28;20029;-76
2022/01/29 01:14:51;;;;;;;13.90;5.38;;;;;;;2.12;74.29;101386.28;5017190;28;20062;-77
2022/01/29 01:17:18;;;;;;;22.27;6.15;;;;;;;2.07;75.19;101383.09;5017302;28;20026;-77
2022/01/29 01:19:46;;;;;;;19.23;5.38;;;;;;;2.03;75.20;101387.84;5017263;28;20079;-77
2022/01/29 01:22:20;;;;;;;20.98;5.13;;;;;;;2.01;75.15;101384.66;5017759;28;20056;-77
2022/01/29 01:24:47;;;;;;;19.45;5.95;;;;;;;1.99;75.24;101382.22;5033988;28;20028;-76
2022/01/29 01:27:15;;;;;;;27.20;5.72;;;;;;;1.99;75.17;101381.41;5035195;28;20025;-76
2022/01/29 01:29:42;;;;;;;16.35;5.00;;;;;;;1.89;75.48;101365.31;5033536;28;20044;-78
2022/01/29 01:32:13;;;;;;;17.48;5.03;;;;;;;1.94;75.79;101365.75;5030732;28;20086;-77
2022/01/29 01:34:44;;;;;;;14.25;4.55;;;;;;;1.86;75.96;101366.13;5001721;28;20029;-78
2022/01/29 01:37:17;;;;;;;18.02;5.10;;;;;;;1.86;75.55;101364.13;5033716;28;20538;-77
2022/01/29 01:39:43;;;;;;;23.05;4.93;;;;;;;1.77;75.71;101363.66;5033888;28;20060;-76
2022/01/29 01:42:09;;;;;;;14.60;5.65;;;;;;;1.76;75.67;101370.47;5033742;28;20076;-77
2022/01/29 01:44:45;;;;;;;12.05;4.82;;;;;;;1.78;76.54;101362.44;5034468;28;20355;-78
2022/01/29 01:47:12;;;;;;;21.15;5.35;;;;;;;1.74;76.69;101365.25;5017172;28;20042;-77
2022/01/29 01:49:52;;;;;;;21.40;5.38;;;;;;;1.87;76.32;101364.91;5032638;28;20048;-76
2022/01/29 01:52:17;;;;;;;21.83;4.78;;;;;;;1.98;76.24;101358.13;5033481;28;20025;-77
2022/01/29 01:54:43;;;;;;;16.30;6.35;;;;;;;1.83;76.96;101350.84;5033298;28;20025;-77
2022/01/29 01:57:10;;;;;;;15.35;4.07;;;;;;;1.82;77.14;101343.63;5016599;28;20029;-77
2022/01/29 01:59:38;;;;;;;14.40;4.57;;;;;;;1.94;76.54;101339.66;5034793;28;20021;-78
2022/01/29 02:02:04;;;;;;;23.77;5.45;;;;;;;1.83;77.03;101344.41;5033310;28;20022;-77
2022/01/29 02:04:33;;;;;;;20.88;5.88;;;;;;;1.85;76.94;101345.66;5016523;28;20079;-78
2022/01/29 02:07:01;;;;;;;21.15;5.70;;;;;;;1.81;77.03;101332.78;5016805;28;20033;-76
2022/01/29 02:09:33;;;;;;;23.13;6.05;;;;;;;1.81;77.19;101339.22;5033099;28;20103;-77
2022/01/29 02:12:04;;;;;;;24.55;5.38;;;;;;;1.79;77.44;101329.56;5016716;28;20025;-78
2022/01/29 02:14:33;;;;;;;26.27;6.65;;;;;;;1.92;77.56;101337.25;5016565;28;20441;-77
2022/01/29 02:17:00;;;;;;;23.35;5.07;;;;;;;1.88;77.82;101338.41;5016671;28;20422;-77
2022/01/29 02:19:27;;;;;;;18.50;4.63;;;;;;;1.89;77.44;101340.84;5016543;28;20067;-77
2022/01/29 02:21:54;;;;;;;18.80;5.07;;;;;;;1.88;77.47;101327.19;5032765;28;20036;-78
2022/01/29 02:24:19;;;;;;;21.83;5.65;;;;;;;1.86;77.24;101324.00;5033504;28;20013;-77
2022/01/29 02:27:03;;;;;;;25.73;5.63;;;;;;;1.91;77.52;101318.00;5037639;28;20450;-77
2022/01/29 02:29:34;;;;;;;25.15;6.13;;;;;;;1.61;77.98;101276.13;5051379;28;20033;-78
2022/01/29 02:31:59;;;;;;;21.27;5.40;;;;;;;1.76;78.53;101310.69;5052597;28;20112;-78
2022/01/29 02:34:24;;;;;;;29.75;5.72;;;;;;;1.75;78.05;101293.03;5050704;28;20108;-78
2022/01/29 02:36:51;;;;;;;23.50;5.63;;;;;;;1.82;78.26;101304.31;5052300;28;20071;-77
2022/01/29 02:39:19;;;;;;;19.15;5.50;;;;;;;1.83;78.31;101307.91;5051511;28;20031;-76
2022/01/29 02:41:45;;;;;;;20.55;4.85;;;;;;;1.76;77.92;101297.47;5036309;28;20025;-78
2022/01/29 02:44:18;;;;;;;25.40;5.20;;;;;;;1.63;79.00;101288.56;5036108;28;20033;-77
2022/01/29 02:46:50;;;;;;;25.10;4.97;;;;;;;1.67;78.85;101294.22;5053631;28;20028;-77
2022/01/29 02:49:19;;;;;;;22.52;7.38;;;;;;;1.70;78.45;101291.41;5036015;28;20481;-76
2022/01/29 02:51:47;;;;;;;28.00;6.03;;;;;;;1.62;79.12;101288.97;5036317;28;20116;-76
2022/01/29 02:54:14;;;;;;;18.80;5.75;;;;;;;1.62;78.70;101286.19;5052363;28;20423;-76
2022/01/29 02:56:40;;;;;;;17.95;5.15;;;;;;;1.77;78.58;101289.84;5052268;28;20362;-77
2022/01/29 02:59:07;;;;;;;23.60;5.70;;;;;;;1.62;78.99;101278.56;5035712;28;20584;-77
2022/01/29 03:01:34;;;;;;;15.55;4.95;;;;;;;1.65;79.13;101274.16;5035418;28;20036;-77
2022/01/29 03:04:14;;;;;;;27.88;5.75;;;;;;;1.67;78.66;101280.19;5052125;28;20064;-77
2022/01/29 03:06:40;;;;;;;26.73;5.63;;;;;;;1.60;78.89;101257.69;5052270;28;20425;-77
2022/01/29 03:09:06;;;;;;;26.15;6.65;;;;;;;1.58;78.94;101274.13;5053570;28;20040;-77
2022/01/29 03:11:34;;;;;;;30.67;6.57;;;;;;;1.55;79.43;101272.09;5052303;28;20028;-78
2022/01/29 03:13:59;;;;;;;28.52;5.65;;;;;;;1.58;79.47;101272.09;5051261;28;20025;-77
2022/01/29 03:16:33;;;;;;;19.58;5.40;;;;;;;1.56;79.54;101276.50;5019099;28;20075;-77
2022/01/29 03:18:58;;;;;;;23.65;6.55;;;;;;;1.51;79.62;101258.03;5053195;28;20492;-77
2022/01/29 03:21:24;;;;;;;26.33;5.57;;;;;;;1.61;79.65;101256.50;5050874;28;20040;-77
2022/01/29 03:23:50;;;;;;;19.25;4.78;;;;;;;1.61;79.44;101248.06;5053081;28;20029;-77
2022/01/29 03:26:16;;;;;;;23.95;5.28;;;;;;;1.59;79.13;101242.84;5051901;28;20028;-77
2022/01/29 03:28:46;;;;;;;28.48;5.57;;;;;;;1.69;79.50;101235.66;5053252;28;20108;-77
2022/01/29 03:31:13;;;;;;;21.23;4.93;;;;;;;1.83;78.92;101244.13;5035333;28;20420;-77
2022/01/29 03:33:43;;;;;;;19.05;5.53;;;;;;;1.86;79.23;101234.91;5053415;28;20028;-77
2022/01/29 03:36:08;;;;;;;22.00;5.93;;;;;;;1.83;79.15;101232.09;5018727;28;20036;-76
2022/01/29 03:38:39;;;;;;;19.60;5.20;;;;;;;1.79;78.86;101232.06;5051794;28;20025;-76
2022/01/29 03:41:10;;;;;;;20.73;6.37;;;;;;;1.90;78.94;101234.91;5053130;28;20029;-77
2022/01/29 03:43:43;;;;;;;;;;;;;;;1.85;79.12;101229.69;5053394;28;20029;-77
2022/01/29 03:46:13;;;;;;;21.20;5.88;;;;;;;1.79;79.16;101225.66;5053386;28;19912;-77
2022/01/29 03:48:40;;;;;;;23.70;5.13;;;;;;;1.80;78.64;101214.03;5018930;28;20056;-77
2022/01/29 03:51:06;;;;;;;22.05;4.72;;;;;;;1.86;78.35;101222.88;5035053;28;20057;-77
2022/01/29 03:53:41;;;;;;;21.55;5.05;;;;;;;1.79;79.09;101209.63;5052960;28;20029;-77
2022/01/29 03:56:08;;;;;;;24.08;5.95;;;;;;;1.87;78.80;101213.25;5034736;28;20564;-77
2022/01/29 03:58:35;;;;;;;21.30;4.72;;;;;;;1.88;78.50;101201.59;5051911;28;20070;-76
2022/01/29 04:01:00;;;;;;;27.48;5.75;;;;;;;1.85;78.82;101222.06;5052668;28;20488;-78
2022/01/29 04:03:27;;;;;;;11.07;4.13;;;;;;;1.88;78.94;101204.41;5052728;28;20108;-77
2022/01/29 04:05:52;;;;;;;17.67;4.45;;;;;;;2.04;78.61;101201.25;5052946;28;20078;-77
2022/01/29 04:08:19;;;;;;;21.80;4.13;;;;;;;1.94;78.23;101194.41;5051358;28;20128;-77
2022/01/29 04:10:47;;;;;;;22.13;5.43;;;;;;;1.91;78.76;101188.78;5051562;28;20021;-77
2022/01/29 04:13:14;;;;;;;28.85;4.97;;;;;;;2.08;78.61;101197.22;5038037;28;20388;-77
2022/01/29 04:15:44;;;;;;;16.60;4.97;;;;;;;2.25;77.96;101195.66;5022006;28;20067;-77
2022/01/29 04:18:10;;;;;;;18.10;5.05;;;;;;;2.29;77.69;101179.59;5022029;28;20028;-77
2022/01/29 04:20:37;;;;;;;21.50;5.97;;;;;;;2.42;77.15;101180.78;5038337;28;20393;-77
2022/01/29 04:23:07;;;;;;;17.55;5.55;;;;;;;2.47;77.40;101163.50;5038432;28;20047;-78
2022/01/29 04:25:37;;;;;;;31.27;5.68;;;;;;;2.51;77.46;101166.34;5056839;28;20025;-77
2022/01/29 04:28:04;;;;;;;18.60;4.70;;;;;;;2.59;76.52;101153.88;5038372;28;20080;-77
2022/01/29 04:30:32;;;;;;;15.82;4.85;;;;;;;2.60;76.12;101147.84;5055297;28;20033;-77
2022/01/29 04:33:44;;;;;;;21.60;4.88;;;;;;;2.66;76.39;101153.06;5022295;28;20385;-77
2022/01/29 04:35:51;;;;;;;15.38;4.57;;;;;;;2.79;75.71;101157.06;5055452;28;20458;-77
2022/01/29 04:38:31;;;;;;;18.30;4.32;;;;;;;2.83;75.29;101140.97;5021579;28;20075;-77
2022/01/29 04:41:04;;;;;;;22.42;5.32;;;;;;;2.86;75.38;101152.19;5054762;28;20143;-77
2022/01/29 04:43:34;;;;;;;14.95;4.30;;;;;;;2.87;75.30;101148.19;5054640;28;20424;-77
2022/01/29 04:46:01;;;;;;;11.23;3.97;;;;;;;3.00;74.84;101131.69;5051741;28;20417;-78
2022/01/29 04:48:29;;;;;;;15.18;4.85;;;;;;;2.97;75.05;101126.84;5038073;28;20033;-76
2022/01/29 04:50:54;;;;;;;18.08;4.88;;;;;;;3.04;74.82;101138.09;5037994;28;20029;-77
2022/01/29 04:53:20;;;;;;;25.30;4.75;;;;;;;3.03;74.29;101128.84;5054700;28;20040;-77
2022/01/29 04:55:47;;;;;;;24.98;5.40;;;;;;;3.09;74.54;101126.44;5021222;28;20045;-77
2022/01/29 04:58:13;;;;;;;28.25;4.57;;;;;;;3.12;74.41;101134.03;5037667;28;20040;-76
2022/01/29 05:00:40;;;;;;;23.88;5.18;;;;;;;3.04;74.18;101113.59;5038340;28;20048;-77
2022/01/29 05:03:13;;;;;;;24.85;4.57;;;;;;;3.19;73.66;101122.75;5037643;28;20074;-76
2022/01/29 05:05:41;;;;;;;18.48;5.07;;;;;;;3.12;73.95;101122.78;5054131;28;20028;-76
2022/01/29 05:08:07;;;;;;;18.58;4.68;;;;;;;3.07;73.69;101119.59;5037455;28;20037;-77
2022/01/29 05:10:34;;;;;;;23.77;5.60;;;;;;;3.06;73.51;101124.41;5037338;28;20029;-76
2022/01/29 05:13:19;;;;;;;24.48;5.38;;;;;;;3.03;73.82;101117.59;5037193;28;20032;-77
2022/01/29 05:27:00;;;;;;;29.17;6.60;;;;;;;2.99;73.53;101099.13;5054103;28;20079;-77
2022/01/29 05:29:30;;;;;;;22.83;4.93;;;;;;;2.95;73.85;101090.72;5053554;28;20029;-77
2022/01/29 05:32:01;;;;;;;21.95;4.82;;;;;;;2.92;74.05;101085.06;5037519;28;20029;-77
2022/01/29 05:34:29;;;;;;;22.23;5.07;;;;;;;2.90;74.27;101087.50;5053579;28;20064;-77
2022/01/29 05:36:57;;;;;;;20.50;5.88;;;;;;;2.96;74.42;101081.03;5033458;28;20390;-77
2022/01/29 05:39:24;;;;;;;18.50;5.57;;;;;;;2.98;74.34;101073.00;5039066;28;20489;-77
2022/01/29 05:41:50;;;;;;;22.90;5.25;;;;;;;3.01;74.05;101069.34;5016996;28;20039;-76
2022/01/29 05:44:15;;;;;;;25.15;6.65;;;;;;;3.05;73.87;101072.19;5033339;28;20033;-77
2022/01/29 05:46:42;;;;;;;33.22;6.28;;;;;;;3.06;73.86;101064.53;5016784;28;20033;-75
2022/01/29 05:49:09;;;;;;;19.02;5.10;;;;;;;3.11;73.64;101069.75;5016679;28;20094;-77
2022/01/29 05:51:34;;;;;;;20.75;5.53;;;;;;;3.11;73.15;101061.31;5033275;28;20036;-78
2022/01/29 05:54:14;;;;;;;18.42;5.00;;;;;;;3.08;73.67;101060.09;5000105;28;20026;-76
2022/01/29 05:56:40;;;;;;;19.02;5.07;;;;;;;3.02;73.77;101051.28;5032886;28;20174;-77
2022/01/29 05:59:06;;;;;;;17.85;4.82;;;;;;;3.04;73.83;101039.63;5032767;28;20132;-77
2022/01/29 06:01:34;;;;;;;27.20;6.05;;;;;;;3.10;73.48;101020.28;5032874;28;20037;-76
2022/01/29 06:04:00;;;;;;;16.95;4.55;;;;;;;3.01;73.42;101009.47;5033097;28;20493;-76
2022/01/29 06:06:27;;;;;;;14.00;5.20;;;;;;;2.98;73.16;100987.78;5033286;28;20031;-78
2022/01/29 06:08:53;;;;;;;24.90;5.28;;;;;;;2.98;72.94;100993.41;5016297;28;20029;-77
2022/01/29 06:11:39;;;;;;;14.23;4.95;;;;;;;3.00;72.48;100996.63;5030334;28;20132;-78
2022/01/29 06:14:05;;;;;;;22.42;5.43;;;;;;;2.89;72.95;100996.69;5015591;28;20033;-77
2022/01/29 06:16:31;;;;;;;14.65;4.55;;;;;;;2.83;73.05;101017.19;5032977;28;20116;-78
2022/01/29 06:18:58;;;;;;;18.20;4.55;;;;;;;2.82;72.95;101002.34;5034252;28;20049;-77
2022/01/29 06:21:26;;;;;;;17.42;4.53;;;;;;;2.93;72.71;100994.66;5034116;28;20030;-78
2022/01/29 06:23:53;;;;;;;17.92;5.45;;;;;;;2.95;72.02;100983.81;5033991;28;20440;-77
2022/01/29 06:26:19;;;;;;;18.88;5.25;;;;;;;2.90;72.09;100980.59;5034220;28;20052;-78
2022/01/29 06:28:46;;;;;;;23.73;6.97;;;;;;;2.83;72.24;100978.63;5016204;28;20061;-78
2022/01/29 06:31:12;;;;;;;16.40;4.95;;;;;;;2.74;73.11;100989.53;5034074;28;20030;-77
2022/01/29 06:33:38;;;;;;;17.45;6.13;;;;;;;2.79;73.01;100993.91;5033986;28;20083;-78
2022/01/29 06:36:03;;;;;;;24.95;6.45;;;;;;;2.77;73.05;100996.31;5033214;28;20021;-78
2022/01/29 06:38:29;;;;;;;20.02;5.90;;;;;;;2.72;73.24;100994.75;5031311;28;20461;-77
2022/01/29 06:40:55;;;;;;;22.92;7.13;;;;;;;2.70;72.69;100985.94;5033778;28;20038;-77
2022/01/29 06:43:21;;;;;;;25.08;6.78;;;;;;;2.74;73.28;100983.09;5033737;28;20029;-77
2022/01/29 06:45:47;;;;;;;21.55;7.40;;;;;;;2.76;73.01;100969.44;5032468;28;20475;-77
2022/01/29 06:48:14;;;;;;;23.48;6.70;;;;;;;2.79;72.52;100963.78;5030923;28;20048;-76
2022/01/29 06:50:41;;;;;;;16.13;6.55;;;;;;;2.83;72.20;100963.75;5032090;28;20064;-78
2022/01/29 06:53:07;;;;;;;21.20;6.75;;;;;;;2.91;72.30;100965.34;5028111;28;20064;-77
2022/01/29 06:55:33;;;;;;;20.02;6.53;;;;;;;2.90;71.44;100958.09;5035604;28;20039;-76
2022/01/29 06:57:59;;;;;;;20.88;6.07;;;;;;;2.94;71.17;100956.88;5052247;28;20041;-76
2022/01/29 07:00:27;;;;;;;15.32;6.05;;;;;;;2.93;70.90;100955.25;5035762;28;20037;-82
2022/01/29 07:02:56;;;;;;;17.60;6.68;;;;;;;2.95;71.44;100943.59;5035508;28;20176;-75
2022/01/29 07:05:22;;;;;;;22.73;7.65;;;;;;;3.03;71.14;100951.59;5041264;28;20017;-76
2022/01/29 07:07:50;;;;;;;22.85;7.38;;;;;;;3.08;70.86;100947.53;5050355;28;20535;-75
2022/01/29 07:10:17;;;;;;;18.83;7.03;;;;;;;3.24;70.91;100938.59;5039696;28;20025;-77
2022/01/29 07:12:47;;;;;;;18.88;8.25;;;;;;;3.34;70.35;100944.13;5031940;28;20033;-79
2022/01/29 07:15:13;;;;;;;25.42;9.65;;;;;;;3.44;70.33;100931.19;5114831;22;20498;-79
2022/01/29 07:17:39;;;;;;;27.08;8.02;;;;;;;3.49;69.87;100911.03;5028804;28;20033;-79
2022/01/29 07:20:11;;;;;;;16.17;6.72;;;;;;;3.78;68.63;100917.19;5029877;28;20064;-76
2022/01/29 07:22:51;;;;;;;16.98;6.63;;;;;;;3.81;68.52;100921.97;5015593;28;20094;-78
2022/01/29 07:25:18;;;;;;;14.90;6.43;;;;;;;3.78;68.17;100914.38;5025936;28;20028;-80
2022/01/29 07:27:44;;;;;;;17.60;6.35;;;;;;;3.88;67.29;100925.53;5023061;28;20060;-79
2022/01/29 07:30:11;;;;;;;17.27;6.10;;;;;;;3.99;68.07;100927.44;5031862;28;20069;-79
2022/01/29 07:32:42;;;;;;;10.95;5.18;;;;;;;4.02;67.68;100920.97;5033061;28;20108;-80
2022/01/29 07:35:09;;;;;;;14.52;5.28;;;;;;;4.05;67.23;100915.28;5031973;28;20025;-79
2022/01/29 07:37:38;;;;;;;19.27;6.60;;;;;;;4.19;66.66;100903.84;5033250;28;20056;-78
2022/01/29 07:40:05;;;;;;;17.98;6.43;;;;;;;4.27;66.80;100922.28;5007023;28;20106;-79
2022/01/29 07:42:32;;;;;;;13.07;5.35;;;;;;;4.33;66.13;100914.97;5015761;28;20037;-81
2022/01/29 07:44:59;;;;;;;21.33;5.45;;;;;;;4.40;65.49;100910.44;5029713;28;20263;-82
2022/01/29 07:47:25;;;;;;;18.08;5.60;;;;;;;4.38;65.29;100905.25;5030527;28;20112;-81
2022/01/29 07:49:50;;;;;;;18.15;5.43;;;;;;;4.42;65.51;100914.44;5036323;28;20126;-81
2022/01/29 07:52:16;;;;;;;13.90;5.35;;;;;;;4.49;65.86;100907.94;5031133;28;20033;-81
2022/01/29 07:54:46;;;;;;;18.77;5.85;;;;;;;4.55;65.65;100911.84;5018397;28;20021;-80
2022/01/29 07:57:12;;;;;;;20.60;6.80;;;;;;;4.46;65.41;100903.13;4999612;28;20038;-82
2022/01/29 07:59:38;;;;;;;19.20;5.28;;;;;;;4.52;65.52;100892.97;5015871;28;20526;-81
2022/01/29 08:02:03;;;;;;;16.27;6.93;;;;;;;4.55;65.51;100892.91;5016886;28;20117;-82
2022/01/29 08:04:28;;;;;;;16.00;5.78;;;;;;;4.52;65.55;100890.94;4982821;28;20040;-80
2022/01/29 08:06:54;;;;;;;18.27;6.10;;;;;;;4.58;66.15;100891.28;5015756;28;20030;-82
2022/01/29 08:09:19;;;;;;;20.85;5.85;;;;;;;4.51;66.26;100874.44;5015765;28;20076;-79
2022/01/29 08:11:46;;;;;;;20.13;6.65;;;;;;;4.61;65.98;100879.13;5021597;28;20478;-81
2022/01/29 08:14:14;;;;;;;18.35;7.03;;;;;;;4.70;65.88;100870.94;5034907;28;20401;-82
2022/01/29 08:16:40;;;;;;;23.70;6.88;;;;;;;4.81;65.98;100870.78;5004492;28;20033;-78
2022/01/29 08:19:05;;;;;;;15.98;6.50;;;;;;;4.88;66.43;100871.50;5001520;28;20030;-78
2022/01/29 08:21:31;;;;;;;19.27;6.35;;;;;;;5.02;65.61;100848.69;5016846;28;20401;-79
2022/01/29 08:23:57;;;;;;;20.67;7.85;;;;;;;5.32;65.13;100856.25;5015266;28;20042;-78
2022/01/29 08:26:24;;;;;;;18.70;6.72;;;;;;;5.57;64.65;100850.19;5026863;28;20041;-77
2022/01/29 08:28:49;;;;;;;21.70;7.07;;;;;;;5.70;64.27;100841.84;5026958;28;20034;-78
2022/01/29 08:31:16;;;;;;;20.05;7.88;;;;;;;5.63;64.29;100811.69;5030206;28;20067;-78
2022/01/29 08:33:43;;;;;;;26.38;8.13;;;;;;;5.85;63.84;100838.31;5035968;28;20078;-77
2022/01/29 08:36:09;;;;;;;23.10;7.85;;;;;;;5.91;63.47;100845.09;5006872;28;20026;-77
2022/01/29 08:38:35;;;;;;;16.80;6.28;;;;;;;5.90;62.72;100826.53;5015028;28;20133;-77
2022/01/29 08:41:03;;;;;;;25.52;7.53;;;;;;;5.96;62.27;100816.34;5015111;28;20065;-77
2022/01/29 08:43:32;;;;;;;19.58;5.78;;;;;;;6.08;61.86;100812.84;5017324;28;20037;-77
2022/01/29 08:46:03;;;;;;;17.75;6.47;;;;;;;6.14;62.23;100818.78;5029378;28;20470;-77
2022/01/29 08:48:28;;;;;;;18.45;6.45;;;;;;;6.16;61.18;100815.53;5034881;28;20390;-76
2022/01/29 08:50:56;;;;;;;18.65;6.25;;;;;;;6.02;62.32;100777.00;5034545;28;20470;-79
2022/01/29 08:53:22;;;;;;;19.05;6.20;;;;;;;6.34;62.42;100791.28;5035627;28;20037;-77
2022/01/29 08:55:48;;;;;;;23.10;7.22;;;;;;;6.20;62.45;100800.06;5035424;28;20021;-78
2022/01/29 08:58:15;;;;;;;20.58;7.50;;;;;;;5.96;61.99;100768.28;5033979;28;20164;-77
2022/01/29 09:00:46;;;;;;;17.50;6.18;;;;;;;5.99;63.28;100787.19;5035743;28;20029;-77
2022/01/29 09:03:16;;;;;;;17.70;6.00;;;;;;;5.88;63.75;100783.75;5034728;28;20029;-80
2022/01/29 09:05:46;;;;;;;16.90;7.05;;;;;;;5.98;63.98;100779.91;5051242;28;20021;-76
2022/01/29 09:08:15;;;;;;;22.63;7.68;;;;;;;5.95;63.99;100765.88;5001723;28;20120;-80
2022/01/29 09:10:45;;;;;;;22.80;7.80;;;;;;;6.02;63.67;100783.47;5034481;28;20029;-80
2022/01/29 09:13:12;;;;;;;18.65;6.97;;;;;;;6.16;63.16;100779.56;5034624;28;20389;-79
2022/01/29 09:15:38;;;;;;;24.80;8.02;;;;;;;6.07;63.41;100770.84;5017418;28;20054;-78
2022/01/29 09:18:13;;;;;;;20.98;7.85;;;;;;;6.03;63.90;100782.25;5034376;28;20030;-79
2022/01/29 09:20:40;;;;;;;16.20;7.57;;;;;;;5.90;64.14;100758.69;5017598;28;20505;-79
2022/01/29 09:23:08;;;;;;;17.13;7.90;;;;;;;5.82;64.33;100765.69;5035489;28;20116;-79
2022/01/29 09:25:37;;;;;;;22.10;8.07;;;;;;;5.91;64.76;100757.47;5034796;28;20030;-78
2022/01/29 09:28:13;;;;;;;23.17;9.07;;;;;;;5.91;63.57;100753.84;5034365;28;20063;-78
2022/01/29 09:30:39;;;;;;;23.25;8.10;;;;;;;6.11;63.82;100751.00;5035232;28;20037;-79
2022/01/29 09:33:26;;;;;;;25.85;11.35;;;;;;;5.99;62.75;100741.94;5033929;28;20100;-77
2022/01/29 09:35:52;;;;;;;22.05;7.20;;;;;;;6.13;63.35;100740.03;5016897;28;20045;-80
2022/01/29 09:38:17;;;;;;;15.75;7.88;;;;;;;6.13;63.40;100731.53;5034866;28;20390;-78
2022/01/29 09:40:44;;;;;;;23.15;8.20;;;;;;;6.04;63.39;100732.94;5000779;28;20458;-79
2022/01/29 09:43:11;;;;;;;20.02;8.60;;;;;;;5.97;63.39;100733.09;5033479;28;20034;-77
2022/01/29 09:45:51;;;;;;;19.48;7.43;;;;;;;5.94;64.32;100731.16;5017129;28;20079;-78
2022/01/29 09:48:21;;;;;;;21.60;7.80;;;;;;;5.93;64.08;100734.41;5034653;28;20029;-78
2022/01/29 09:50:50;;;;;;;18.70;6.50;;;;;;;5.99;63.73;100712.88;5033589;28;20033;-77
2022/01/29 09:53:18;;;;;;;17.50;6.78;;;;;;;5.98;63.23;100711.28;5033732;28;20034;-78
2022/01/29 09:55:43;;;;;;;16.00;7.45;;;;;;;6.00;63.41;100708.81;5033197;28;20335;-80
2022/01/29 09:58:10;;;;;;;16.40;6.88;;;;;;;5.98;64.26;100703.59;5033972;28;20041;-77
2022/01/29 10:00:37;;;;;;;21.35;7.28;;;;;;;6.12;64.18;100707.34;5034597;28;20075;-76
2022/01/29 10:03:16;;;;;;;15.00;6.35;;;;;;;6.08;63.74;100702.56;5033426;28;20112;-79
2022/01/29 10:05:50;;;;;;;15.40;6.90;;;;;;;6.12;63.82;100702.47;5016445;28;20032;-74
2022/01/29 10:08:40;;;;;;;14.45;7.00;;;;;;;5.94;65.13;100687.94;5016767;28;20033;-77
2022/01/29 10:11:27;;;;;;;13.75;6.78;;;;;;;5.76;66.48;100684.69;5034057;28;20033;-78
2022/01/29 10:14:04;;;;;;;15.65;6.90;;;;;;;5.79;66.17;100678.94;5032408;28;20048;-77
2022/01/29 10:16:31;;;;;;;13.75;6.80;;;;;;;5.91;65.89;100669.84;5034181;28;20135;-78
2022/01/29 10:19:12;;;;;;;16.10;6.57;;;;;;;5.95;65.55;100672.59;5000080;28;20489;-79
2022/01/29 10:21:42;;;;;;;19.63;7.70;;;;;;;5.70;67.08;100661.78;5016137;28;20486;-77
2022/01/29 10:24:16;;;;;;;12.73;5.85;;;;;;;5.65;66.93;100656.66;5031742;28;20117;-80
2022/01/29 10:26:45;;;;;;;11.13;5.22;;;;;;;5.48;68.43;100655.78;5033486;28;20068;-82
2022/01/29 10:29:26;;;;;;;16.92;5.97;;;;;;;5.35;69.47;100646.41;5032503;28;20087;-81
2022/01/29 10:31:57;;;;;;;12.05;6.05;;;;;;;5.21;70.85;100649.50;5033954;28;20036;-79
2022/01/29 10:34:32;;;;;;;10.37;5.47;;;;;;;5.17;70.37;100635.47;4999715;28;20026;-80
2022/01/29 10:37:18;;;;;;;8.30;5.28;;;;;;;5.05;72.11;100644.56;5032401;28;20029;-78
2022/01/29 10:40:23;;;;;;;12.95;6.53;;;;;;;5.02;71.94;100641.84;5032374;28;20033;-78
2022/01/29 10:42:51;;;;;;;13.27;6.95;;;;;;;4.89;72.83;100633.19;5033523;28;20086;-80
2022/01/29 10:45:32;;;;;;;17.48;8.57;;;;;;;4.79;72.92;100632.16;5015848;28;20032;-78
2022/01/29 10:47:59;;;;;;;38.35;12.73;;;;;;;4.57;73.48;100630.97;5032523;28;20021;-80
2022/01/29 10:50:26;;;;;;;14.80;7.13;;;;;;;4.70;74.87;100631.94;5013044;28;20030;-79
2022/01/29 10:52:52;;;;;;;10.77;6.82;;;;;;;4.64;74.94;100618.75;5015735;28;20029;-79
2022/01/29 10:55:18;;;;;;;13.43;6.53;;;;;;;4.63;75.25;100617.97;5015966;28;20132;-80
2022/01/29 10:57:46;;;;;;;8.57;5.32;;;;;;;4.71;75.46;100605.31;5033571;28;20029;-80
2022/01/29 11:00:24;;;;;;;9.85;5.45;;;;;;;4.79;74.87;100603.94;5016433;28;20470;-79
2022/01/29 11:02:53;;;;;;;19.38;7.35;;;;;;;4.67;74.80;100606.63;5029953;28;20048;-79
2022/01/29 11:05:41;;;;;;;15.20;7.22;;;;;;;4.74;75.95;100595.19;5022915;28;20026;-80
2022/01/29 11:08:07;;;;;;;9.68;5.72;;;;;;;4.54;76.60;100577.47;5026869;28;20430;-79
2022/01/29 11:10:33;;;;;;;9.55;5.85;;;;;;;4.59;76.20;100576.94;5018988;28;20526;-78
2022/01/29 11:13:01;;;;;;;11.40;6.50;;;;;;;4.66;75.78;100568.34;5014695;28;20485;-78
2022/01/29 11:15:28;;;;;;;13.77;6.45;;;;;;;4.50;77.20;100565.41;5015238;28;20085;-79
2022/01/29 11:17:54;;;;;;;11.60;6.50;;;;;;;4.47;76.79;100571.94;5032930;28;20069;-78
2022/01/29 11:20:25;;;;;;;14.88;6.43;;;;;;;4.35;77.51;100547.97;5032604;28;20060;-80
2022/01/29 11:22:59;;;;;;;9.80;6.43;;;;;;;4.46;77.46;100553.41;5036140;28;20029;-82
2022/01/29 11:25:32;;;;;;;11.52;6.38;;;;;;;4.35;77.54;100543.13;5019146;28;20072;-78
2022/01/29 11:28:16;;;;;;;12.82;6.70;;;;;;;4.31;79.96;100536.75;5038249;28;20018;-82
2022/01/29 11:30:46;;;;;;;10.40;7.07;;;;;;;4.25;78.01;100535.66;5019650;28;20021;-81
2022/01/29 11:33:11;;;;;;;10.48;6.40;;;;;;;4.10;79.12;100508.94;5036438;28;20025;-78
2022/01/29 11:35:57;;;;;;;13.75;7.07;;;;;;;4.22;78.51;100519.63;5036139;28;20021;-77
2022/01/29 11:38:28;;;;;;;10.60;6.22;;;;;;;4.38;78.46;100504.03;5019887;28;20037;-79
2022/01/29 11:41:02;;;;;;;12.70;6.63;;;;;;;4.33;78.44;100496.88;5035957;28;20025;-76
2022/01/29 11:43:30;;;;;;;12.70;6.25;;;;;;;4.23;78.57;100492.22;5036273;28;20049;-80
2022/01/29 11:46:15;;;;;;;10.95;6.10;;;;;;;4.13;78.44;100468.66;5032480;28;20120;-77